Time;durP1;ratioP1;P1;durP2;ratioP2;P2;SDS_P1;SDS_P2;PMS_P1;PMS_P2;Temp;Humidity;BMP_temperature;BMP_pressure;BME280_temperature;BME280_humidity;BME280_pressure;Samples;Min_cycle;Max_cycle;Signal;HPM_P1;HPM_P2
2022/12/01 00:03:32;;;;;;;12.55;4.95;;;7.30;99.90;;;;;;10135815;28;20040;-62
2022/12/01 00:08:22;;;;;;;9.95;4.85;;;7.40;99.90;;;;;;10133026;28;20032;-62
2022/12/01 00:13:13;;;;;;;9.77;4.57;;;7.40;99.90;;;;;;10134157;28;20035;-60
2022/12/01 00:18:07;;;;;;;13.02;4.53;;;7.30;99.90;;;;;;10141424;28;20032;-61
2022/12/01 00:22:57;;;;;;;11.40;5.20;;;7.30;99.90;;;;;;10134326;28;20514;-63
2022/12/01 00:27:49;;;;;;;13.40;5.28;;;7.30;99.90;;;;;;10132408;28;20039;-61
2022/12/01 00:32:40;;;;;;;12.85;4.75;;;7.10;99.90;;;;;;10129939;28;20384;-62
2022/12/01 00:37:32;;;;;;;15.25;5.28;;;7.10;99.90;;;;;;10129371;28;20096;-61
2022/12/01 00:42:23;;;;;;;11.32;4.63;;;7.00;99.90;;;;;;10113027;28;20042;-61
2022/12/01 00:47:14;;;;;;;10.80;4.90;;;7.00;99.90;;;;;;10133774;28;20390;-61
2022/12/01 00:52:05;;;;;;;16.02;5.63;;;7.00;99.90;;;;;;10124983;28;20028;-61
2022/12/01 00:56:59;;;;;;;12.02;5.82;;;7.10;99.90;;;;;;10133308;28;20122;-62
2022/12/01 01:01:50;;;;;;;11.95;5.10;;;7.00;99.90;;;;;;10125060;28;20049;-62
2022/12/01 01:06:44;;;;;;;13.45;5.85;;;6.80;99.90;;;;;;10129118;28;20025;-61
2022/12/01 01:11:35;;;;;;;13.50;5.68;;;6.70;99.90;;;;;;10122518;28;20020;-61
2022/12/01 01:16:25;;;;;;;12.65;5.15;;;6.70;99.90;;;;;;10129895;28;20109;-61
2022/12/01 01:21:18;;;;;;;10.30;5.10;;;6.70;99.90;;;;;;10136485;28;20532;-62
2022/12/01 01:26:15;;;;;;;13.20;5.43;;;6.80;99.90;;;;;;10143906;28;20086;-61
2022/12/01 01:31:06;;;;;;;10.55;4.47;;;6.80;99.90;;;;;;10129304;28;20020;-62
2022/12/01 01:36:01;;;;;;;9.27;4.20;;;6.70;99.90;;;;;;10133829;28;20033;-60
2022/12/01 01:40:52;;;;;;;11.95;4.60;;;6.70;99.90;;;;;;10128324;28;20139;-61
2022/12/01 01:45:43;;;;;;;5.75;2.25;;;6.70;99.90;;;;;;10131319;28;20318;-61
2022/12/01 01:50:34;;;;;;;5.10;2.53;;;6.80;99.90;;;;;;10138452;28;20017;-61
2022/12/01 01:55:24;;;;;;;4.45;1.95;;;6.90;99.90;;;;;;10126673;28;20040;-62
2022/12/01 02:00:17;;;;;;;6.05;2.25;;;6.90;99.90;;;;;;10130658;28;20035;-62
2022/12/01 02:05:12;;;;;;;5.57;2.28;;;6.90;99.90;;;;;;10126337;28;20510;-62
2022/12/01 02:10:04;;;;;;;6.95;2.72;;;6.70;99.90;;;;;;10126638;28;20028;-61
2022/12/01 02:15:44;;;;;;;7.13;3.00;;;6.60;99.90;;;;;;10110741;28;20024;-62
2022/12/01 02:20:56;;;;;;;5.78;3.58;;;6.50;99.90;;;;;;10128794;28;20040;-61
2022/12/01 02:25:56;;;;;;;6.60;3.53;;;6.40;99.90;;;;;;10130262;28;20163;-61
2022/12/01 02:30:57;;;;;;;7.45;3.35;;;6.40;99.90;;;;;;10122052;28;20032;-60
2022/12/01 02:35:58;;;;;;;9.50;3.92;;;6.40;99.90;;;;;;10124057;28;20503;-61
2022/12/01 02:41:10;;;;;;;7.07;3.60;;;6.50;99.90;;;;;;10124225;28;20514;-61
2022/12/01 02:46:22;;;;;;;9.25;3.60;;;6.60;99.90;;;;;;10121326;28;20519;-61
2022/12/01 02:51:27;;;;;;;8.55;3.75;;;6.60;99.90;;;;;;10122955;28;20078;-62
2022/12/01 02:56:21;;;;;;;6.20;3.45;;;6.50;99.90;;;;;;10120964;28;20032;-61
2022/12/01 03:01:31;;;;;;;6.25;4.00;;;6.50;99.90;;;;;;10121257;28;20044;-61
2022/12/01 03:07:01;;;;;;;7.82;3.30;;;6.40;99.90;;;;;;10141429;28;21088;-62
2022/12/01 03:12:13;;;;;;;9.30;3.67;;;6.30;99.90;;;;;;10106054;28;20090;-62
2022/12/01 03:17:07;;;;;;;9.60;3.35;;;6.20;99.90;;;;;;10137844;28;20021;-61
2022/12/01 03:22:09;;;;;;;10.13;4.60;;;6.10;99.90;;;;;;10135021;28;20071;-61
2022/12/01 03:27:02;;;;;;;8.88;4.00;;;6.10;99.90;;;;;;10131918;28;20025;-62
2022/12/01 03:32:07;;;;;;;7.95;4.28;;;5.90;99.90;;;;;;10125150;28;20135;-61
2022/12/01 03:37:06;;;;;;;7.38;3.22;;;5.90;99.90;;;;;;10134469;28;20035;-61
2022/12/01 03:42:21;;;;;;;6.60;3.78;;;5.80;99.90;;;;;;10135192;28;20040;-61
2022/12/01 03:47:18;;;;;;;6.20;3.80;;;5.80;99.90;;;;;;10114159;28;20287;-61
2022/12/01 03:52:14;;;;;;;9.43;4.05;;;5.80;99.90;;;;;;10137907;28;20044;-62
2022/12/01 03:57:10;;;;;;;9.88;3.95;;;5.80;99.90;;;;;;10136703;28;20032;-61
2022/12/01 04:02:01;;;;;;;7.82;3.75;;;5.90;99.90;;;;;;10131847;28;20087;-62
2022/12/01 04:06:52;;;;;;;11.65;4.75;;;5.90;99.90;;;;;;10130094;28;20528;-62
2022/12/01 04:16:52;;;;;;;13.07;4.95;;;5.90;99.90;;;;;;10131567;28;20430;-61
2022/12/01 04:21:43;;;;;;;11.07;4.72;;;6.00;99.90;;;;;;10131292;28;20082;-62
2022/12/01 04:26:36;;;;;;;11.77;4.57;;;6.00;99.90;;;;;;10130976;28;20012;-63
2022/12/01 04:31:26;;;;;;;12.55;5.35;;;6.00;99.90;;;;;;10139770;28;20040;-62
2022/12/01 04:36:17;;;;;;;10.48;4.80;;;6.00;99.90;;;;;;10142470;28;20016;-61
2022/12/01 04:41:12;;;;;;;9.80;5.05;;;6.00;99.90;;;;;;10140771;28;20241;-61
2022/12/01 04:46:04;;;;;;;13.18;5.18;;;6.10;99.90;;;;;;10132427;28;20029;-62
2022/12/01 04:50:54;;;;;;;10.63;4.97;;;6.10;99.90;;;;;;10131683;28;20491;-61
2022/12/01 04:55:45;;;;;;;10.57;5.15;;;6.10;99.90;;;;;;10128089;28;20044;-61
2022/12/01 05:00:36;;;;;;;12.55;4.68;;;6.10;99.90;;;;;;10130832;28;20020;-62
2022/12/01 05:05:27;;;;;;;13.10;5.72;;;6.10;99.90;;;;;;10134850;28;20356;-62
2022/12/01 05:10:18;;;;;;;10.23;5.55;;;6.10;99.90;;;;;;10140821;28;20032;-61
2022/12/01 05:15:08;;;;;;;16.02;6.10;;;6.00;99.90;;;;;;10129351;28;20692;-63
2022/12/01 05:25:08;;;;;;;10.57;5.10;;;6.00;99.90;;;;;;10123916;28;20398;-62
2022/12/01 05:29:59;;;;;;;14.00;6.13;;;6.00;99.90;;;;;;10124105;28;20030;-62
2022/12/01 05:34:50;;;;;;;13.27;5.45;;;5.90;99.90;;;;;;10126345;28;20025;-61
2022/12/01 05:39:40;;;;;;;14.57;5.68;;;5.80;99.90;;;;;;10106180;28;20040;-61
2022/12/01 05:44:31;;;;;;;11.07;5.47;;;5.80;99.90;;;;;;10126736;28;20043;-60
2022/12/01 05:49:21;;;;;;;13.00;5.63;;;5.80;99.90;;;;;;10137059;28;20474;-61
2022/12/01 05:54:12;;;;;;;11.40;4.85;;;5.80;99.90;;;;;;10137404;28;20036;-61
2022/12/01 05:59:03;;;;;;;13.70;6.97;;;5.80;99.90;;;;;;10140762;28;20180;-61
2022/12/01 06:03:53;;;;;;;13.65;5.97;;;5.80;99.90;;;;;;10133206;28;20490;-62
2022/12/01 06:08:44;;;;;;;13.02;5.75;;;5.70;99.90;;;;;;10130428;28;20071;-60
2022/12/01 06:13:34;;;;;;;14.73;6.53;;;5.70;99.90;;;;;;10130516;28;20115;-61
2022/12/01 06:18:26;;;;;;;17.63;6.47;;;5.60;99.90;;;;;;10131607;28;20459;-60
2022/12/01 06:23:17;;;;;;;14.10;6.43;;;5.60;99.90;;;;;;10130484;28;20078;-61
2022/12/01 06:28:07;;;;;;;13.63;5.65;;;5.50;99.90;;;;;;10136391;28;20107;-60
2022/12/01 06:32:58;;;;;;;17.13;6.93;;;5.50;99.90;;;;;;10127647;28;20421;-61
2022/12/01 06:37:48;;;;;;;15.45;6.78;;;5.40;99.90;;;;;;10129377;28;20032;-62
2022/12/01 06:42:39;;;;;;;13.05;6.78;;;5.50;99.90;;;;;;10132429;28;20540;-61
2022/12/01 06:47:30;;;;;;;12.30;5.88;;;5.50;99.90;;;;;;10125707;28;20071;-62
2022/12/01 06:52:20;;;;;;;13.75;5.85;;;5.50;99.90;;;;;;10128117;28;20024;-61
2022/12/01 06:57:11;;;;;;;16.33;6.25;;;5.50;99.90;;;;;;10125637;28;20049;-62
2022/12/01 07:02:01;;;;;;;13.10;6.15;;;5.50;99.90;;;;;;10132840;28;20071;-63
2022/12/01 07:06:52;;;;;;;13.15;5.78;;;5.60;99.90;;;;;;10138566;28;20514;-63
2022/12/01 07:11:43;;;;;;;9.98;5.43;;;5.60;99.90;;;;;;10138422;28;20216;-61
2022/12/01 07:16:33;;;;;;;11.85;5.65;;;5.70;99.90;;;;;;10132762;28;20481;-61
2022/12/01 07:21:24;;;;;;;11.95;6.22;;;5.70;99.90;;;;;;10131661;28;20179;-61
2022/12/01 07:26:16;;;;;;;19.95;6.53;;;5.70;99.90;;;;;;10129857;28;20040;-61
2022/12/01 07:31:13;;;;;;;17.27;7.45;;;5.80;99.90;;;;;;10123297;28;20021;-61
2022/12/01 07:36:05;;;;;;;8.82;5.18;;;5.90;99.90;;;;;;10126527;28;20024;-62
2022/12/01 07:41:03;;;;;;;12.63;6.80;;;5.90;99.90;;;;;;10122078;28;20016;-63
2022/12/01 07:45:53;;;;;;;15.60;5.93;;;6.00;99.90;;;;;;10123114;28;20054;-63
2022/12/01 07:50:44;;;;;;;14.63;6.72;;;6.10;99.90;;;;;;10125250;28;20029;-62
2022/12/01 07:55:34;;;;;;;11.88;6.93;;;6.00;99.90;;;;;;10122721;28;20053;-62
2022/12/01 08:00:26;;;;;;;13.48;6.72;;;6.10;99.90;;;;;;10131794;28;20478;-70
2022/12/01 08:05:16;;;;;;;17.35;6.75;;;6.10;99.90;;;;;;10132205;28;20040;-62
2022/12/01 08:10:07;;;;;;;12.80;6.53;;;6.10;99.90;;;;;;10142194;28;20549;-62
2022/12/01 08:14:58;;;;;;;17.13;6.85;;;6.10;99.90;;;;;;10130278;28;20521;-62
2022/12/01 08:19:48;;;;;;;13.18;6.53;;;6.10;99.90;;;;;;10115088;28;20398;-65
2022/12/01 08:24:39;;;;;;;13.63;6.15;;;6.20;99.90;;;;;;10131444;28;20044;-63
2022/12/01 08:29:30;;;;;;;10.32;6.00;;;6.20;99.90;;;;;;10130628;28;20021;-62
2022/12/01 08:34:20;;;;;;;15.40;6.03;;;6.20;99.90;;;;;;10131307;28;20035;-62
2022/12/01 08:39:11;;;;;;;12.40;5.45;;;6.20;99.90;;;;;;10119684;28;20029;-60
2022/12/01 08:44:02;;;;;;;11.48;6.38;;;6.30;99.90;;;;;;10102707;28;20036;-61
2022/12/01 08:48:56;;;;;;;13.68;6.25;;;6.30;99.90;;;;;;10135870;28;20029;-63
2022/12/01 08:53:48;;;;;;;11.63;6.15;;;6.20;99.90;;;;;;10126011;28;20338;-63
2022/12/01 08:58:38;;;;;;;11.77;5.70;;;6.10;99.90;;;;;;10130746;28;20033;-64
2022/12/01 09:03:30;;;;;;;14.20;5.30;;;6.20;99.90;;;;;;10129048;28;20453;-63
2022/12/01 09:08:33;;;;;;;12.40;5.00;;;6.20;99.90;;;;;;10125971;28;20028;-62
2022/12/01 09:13:26;;;;;;;13.07;5.70;;;6.30;99.90;;;;;;10127449;28;20029;-61
2022/12/01 09:18:17;;;;;;;12.27;5.80;;;6.30;99.90;;;;;;10128710;28;20465;-61
2022/12/01 09:23:08;;;;;;;11.00;5.10;;;6.30;99.90;;;;;;10131745;28;20389;-63
2022/12/01 09:27:58;;;;;;;14.45;6.30;;;6.30;99.90;;;;;;10131710;28;20021;-63
2022/12/01 09:32:49;;;;;;;16.00;6.10;;;6.30;99.90;;;;;;10128322;28;20164;-60
2022/12/01 09:37:40;;;;;;;10.88;5.18;;;6.30;99.90;;;;;;10134354;28;20495;-61
2022/12/01 09:42:33;;;;;;;11.20;5.60;;;6.30;99.90;;;;;;10127901;28;20028;-63
2022/12/01 09:47:27;;;;;;;13.48;5.90;;;6.40;99.90;;;;;;10125522;28;20583;-62
2022/12/01 09:52:19;;;;;;;14.02;6.03;;;6.40;99.90;;;;;;10136639;28;20098;-59
2022/12/01 09:57:35;;;;;;;12.98;6.45;;;6.50;99.90;;;;;;10138315;28;20052;-61
2022/12/01 10:02:41;;;;;;;13.90;5.15;;;6.60;99.90;;;;;;10121991;28;20071;-62
2022/12/01 10:07:45;;;;;;;14.82;6.05;;;6.50;99.90;;;;;;10123074;28;20093;-63
2022/12/01 10:12:36;;;;;;;17.52;5.88;;;6.60;99.90;;;;;;10123768;28;20158;-62
2022/12/01 10:17:40;;;;;;;13.93;6.45;;;6.60;99.90;;;;;;10128756;28;20482;-62
2022/12/01 10:22:51;;;;;;;11.60;5.97;;;6.60;99.90;;;;;;10110201;28;20047;-62
2022/12/01 10:28:13;;;;;;;11.13;5.75;;;6.50;99.90;;;;;;10127096;28;20024;-63
2022/12/01 10:33:06;;;;;;;13.38;6.50;;;6.40;99.90;;;;;;10122073;28;20297;-61
2022/12/01 10:38:00;;;;;;;11.50;4.82;;;6.40;99.90;;;;;;10119289;28;20031;-63
2022/12/01 10:42:51;;;;;;;11.68;5.45;;;6.40;99.90;;;;;;10118711;28;20036;-63
2022/12/01 10:48:08;;;;;;;12.25;5.32;;;6.40;99.90;;;;;;10113217;28;20028;-62
2022/12/01 10:52:59;;;;;;;10.80;5.75;;;6.30;99.90;;;;;;10128799;28;20024;-63
2022/12/01 10:57:53;;;;;;;11.95;5.55;;;6.30;99.90;;;;;;10130475;28;20437;-61
2022/12/01 11:02:43;;;;;;;12.10;5.72;;;6.30;99.90;;;;;;10144716;28;20069;-61
2022/12/01 11:07:42;;;;;;;12.65;5.85;;;6.30;99.90;;;;;;10130243;28;20028;-64
2022/12/01 11:12:33;;;;;;;12.63;5.93;;;6.30;99.90;;;;;;10113983;28;20020;-63
2022/12/01 11:17:39;;;;;;;11.95;5.82;;;6.40;99.90;;;;;;10124984;28;20025;-65
2022/12/01 11:22:30;;;;;;;11.00;4.90;;;6.40;99.90;;;;;;10122844;28;20131;-62
2022/12/01 11:27:24;;;;;;;10.65;5.40;;;6.30;99.90;;;;;;10126647;28;20021;-66
2022/12/01 11:32:24;;;;;;;12.85;5.20;;;6.40;99.90;;;;;;10128020;28;20054;-66
2022/12/01 11:37:17;;;;;;;12.40;5.57;;;6.40;99.90;;;;;;10133999;28;20032;-62
2022/12/01 11:42:10;;;;;;;13.93;5.15;;;6.40;99.90;;;;;;10134451;28;20040;-68
2022/12/01 11:47:16;;;;;;;15.25;5.18;;;6.40;99.90;;;;;;10126849;28;20382;-67
2022/12/01 11:52:22;;;;;;;9.10;4.72;;;6.30;99.90;;;;;;10115353;28;20024;-65
2022/12/01 11:57:13;;;;;;;8.65;4.63;;;6.40;99.90;;;;;;10109723;28;20068;-64
2022/12/01 12:02:37;;;;;;;9.13;4.78;;;6.30;99.90;;;;;;10114754;28;20456;-63
2022/12/01 12:07:49;;;;;;;12.13;4.93;;;6.40;99.90;;;;;;10123253;28;20029;-63
2022/12/01 12:12:59;;;;;;;13.80;5.00;;;6.40;99.90;;;;;;10112574;28;20037;-66
2022/12/01 12:18:01;;;;;;;9.98;5.03;;;6.30;99.90;;;;;;10119727;28;20028;-64
2022/12/01 12:23:28;;;;;;;11.65;4.88;;;6.30;99.90;;;;;;10122369;28;20128;-63
2022/12/01 12:28:29;;;;;;;12.38;4.93;;;6.30;99.90;;;;;;10129304;28;20032;-64
2022/12/01 12:33:48;;;;;;;12.68;5.00;;;6.30;99.90;;;;;;10130820;28;20048;-63
2022/12/01 12:39:23;;;;;;;12.00;5.32;;;6.30;99.90;;;;;;10107668;28;20562;-65
2022/12/01 12:44:32;;;;;;;9.88;4.63;;;6.30;99.90;;;;;;10110217;28;20595;-65
2022/12/01 12:49:35;;;;;;;13.07;5.88;;;6.30;99.90;;;;;;10125162;28;20116;-63
2022/12/01 12:54:49;;;;;;;9.10;4.70;;;6.30;99.90;;;;;;10128584;28;21281;-63
2022/12/01 12:59:59;;;;;;;8.55;4.75;;;6.30;99.90;;;;;;10126165;28;20036;-64
2022/12/01 13:05:06;;;;;;;9.25;4.38;;;6.30;99.90;;;;;;10126226;28;20032;-64
2022/12/01 13:10:13;;;;;;;13.02;4.38;;;6.30;99.90;;;;;;10124546;28;20029;-61
2022/12/01 13:15:19;;;;;;;14.68;6.55;;;6.30;99.90;;;;;;10107926;28;20519;-59
2022/12/01 13:20:14;;;;;;;9.17;4.27;;;6.30;99.90;;;;;;10110510;28;20028;-65
2022/12/01 13:25:05;;;;;;;11.77;5.23;;;6.20;99.90;;;;;;10139167;28;20317;-62
2022/12/01 13:29:56;;;;;;;12.20;5.03;;;6.20;99.90;;;;;;10130513;28;20078;-64
2022/12/01 13:34:47;;;;;;;10.85;4.95;;;6.30;99.90;;;;;;10129713;28;20032;-65
2022/12/01 13:39:40;;;;;;;11.60;5.57;;;6.20;99.90;;;;;;10127227;28;20029;-63
2022/12/01 13:44:39;;;;;;;13.13;5.18;;;6.20;99.90;;;;;;10125703;28;20115;-65
2022/12/01 13:49:46;;;;;;;14.20;6.55;;;6.30;99.90;;;;;;10107687;28;20028;-66
2022/12/01 13:54:36;;;;;;;11.18;5.43;;;6.20;99.90;;;;;;10137686;28;20051;-65
2022/12/01 13:59:59;;;;;;;12.20;5.07;;;6.20;99.90;;;;;;10130514;28;20027;-64
2022/12/01 14:04:50;;;;;;;11.38;5.28;;;6.20;99.90;;;;;;10108559;28;20127;-65
2022/12/01 14:09:41;;;;;;;15.88;6.38;;;6.20;99.90;;;;;;10133587;28;20108;-65
2022/12/01 14:14:43;;;;;;;10.48;5.05;;;6.20;99.90;;;;;;10123985;28;20287;-62
2022/12/01 14:19:50;;;;;;;12.65;5.88;;;6.20;99.90;;;;;;10123511;28;20017;-64
2022/12/01 14:24:51;;;;;;;11.20;5.28;;;6.20;99.90;;;;;;10120873;28;20032;-67
2022/12/01 14:29:43;;;;;;;13.45;6.00;;;6.20;99.90;;;;;;10118448;28;20048;-66
2022/12/01 14:34:36;;;;;;;11.95;5.20;;;6.20;99.90;;;;;;10106336;28;20445;-62
2022/12/01 14:39:31;;;;;;;8.55;4.55;;;6.20;99.90;;;;;;10103131;28;20063;-64
2022/12/01 14:44:34;;;;;;;14.20;5.35;;;6.10;99.90;;;;;;10099169;28;21278;-64
2022/12/01 14:49:53;;;;;;;10.32;5.75;;;6.10;99.90;;;;;;10096967;28;20013;-61
2022/12/01 14:54:47;;;;;;;12.98;5.43;;;6.10;99.90;;;;;;10103267;28;20418;-62
2022/12/01 14:59:38;;;;;;;13.07;5.72;;;6.10;99.90;;;;;;10107421;28;20027;-65
2022/12/01 15:04:31;;;;;;;14.35;6.35;;;6.00;99.90;;;;;;10101726;28;20141;-63
2022/12/01 15:09:23;;;;;;;16.60;6.63;;;6.00;99.90;;;;;;10113112;28;20013;-63
2022/12/01 15:14:28;;;;;;;15.98;6.55;;;6.00;99.90;;;;;;10144778;28;20131;-63
2022/12/01 15:19:39;;;;;;;14.77;6.27;;;6.00;99.90;;;;;;10140841;28;20074;-64
2022/12/01 15:24:30;;;;;;;14.23;5.18;;;6.00;99.90;;;;;;10128531;28;20113;-65
2022/12/01 15:29:44;;;;;;;16.52;7.07;;;5.90;99.90;;;;;;10136696;28;20123;-63
2022/12/01 15:34:43;;;;;;;12.63;5.63;;;5.90;99.90;;;;;;10114771;28;20104;-60
2022/12/01 15:39:55;;;;;;;15.65;7.07;;;5.90;99.90;;;;;;10113119;28;20052;-64
2022/12/01 15:45:00;;;;;;;15.27;5.85;;;6.00;99.90;;;;;;10117896;28;20047;-63
2022/12/01 15:49:51;;;;;;;16.90;6.70;;;6.00;99.90;;;;;;10110225;28;20907;-67
2022/12/01 15:54:46;;;;;;;16.33;5.90;;;5.90;99.90;;;;;;10114155;28;20056;-62
2022/12/01 15:59:43;;;;;;;11.88;6.97;;;6.00;99.90;;;;;;10115588;28;20052;-61
2022/12/01 16:04:34;;;;;;;14.30;6.80;;;5.90;99.90;;;;;;10110383;28;20489;-61
2022/12/01 16:09:27;;;;;;;9.68;4.95;;;6.00;99.90;;;;;;10114533;28;20023;-62
2022/12/01 16:14:20;;;;;;;13.18;5.75;;;6.00;99.90;;;;;;10116697;28;20021;-66
2022/12/01 16:19:11;;;;;;;14.32;5.90;;;6.00;99.90;;;;;;10095838;28;20236;-61
2022/12/01 16:24:04;;;;;;;16.13;5.72;;;6.00;99.90;;;;;;10110888;28;20111;-62
2022/12/01 16:28:56;;;;;;;13.45;7.43;;;5.90;99.90;;;;;;10112106;28;20072;-62
2022/12/01 16:33:47;;;;;;;13.00;6.65;;;5.90;99.90;;;;;;10108197;28;20029;-63
2022/12/01 16:38:37;;;;;;;12.82;5.88;;;6.00;99.90;;;;;;10107254;28;20096;-62
2022/12/01 16:43:28;;;;;;;11.63;5.95;;;6.00;99.90;;;;;;10114230;28;20420;-64
2022/12/01 16:48:19;;;;;;;14.30;5.82;;;5.90;99.90;;;;;;10121007;28;20546;-63
2022/12/01 16:53:11;;;;;;;16.08;6.43;;;5.90;99.90;;;;;;10121232;28;20522;-65
2022/12/01 16:58:03;;;;;;;16.33;6.28;;;5.90;99.90;;;;;;10111215;28;20024;-63
2022/12/01 17:02:54;;;;;;;10.82;6.40;;;6.00;99.90;;;;;;10111212;28;20514;-67
2022/12/01 17:07:45;;;;;;;14.60;6.53;;;6.00;99.90;;;;;;10112623;28;20402;-66
2022/12/01 17:12:35;;;;;;;13.05;6.30;;;6.00;99.90;;;;;;10110536;28;20048;-64
2022/12/01 17:17:28;;;;;;;11.07;5.95;;;5.90;99.90;;;;;;10114975;28;20066;-63
2022/12/01 17:22:19;;;;;;;13.63;5.72;;;6.00;99.90;;;;;;10109273;28;20040;-65
2022/12/01 17:27:10;;;;;;;12.60;6.20;;;5.90;99.90;;;;;;10113278;28;20495;-61
2022/12/01 17:32:01;;;;;;;10.10;5.05;;;5.90;99.90;;;;;;10108487;28;20037;-65
2022/12/01 17:36:51;;;;;;;13.15;6.35;;;5.90;99.90;;;;;;10111664;28;20502;-59
2022/12/01 17:41:42;;;;;;;10.32;5.68;;;5.90;99.90;;;;;;10111007;28;20029;-62
2022/12/01 17:46:33;;;;;;;10.90;5.88;;;5.90;99.90;;;;;;10111003;28;20389;-60
2022/12/01 17:51:24;;;;;;;9.90;5.28;;;5.90;99.90;;;;;;10108381;28;20021;-66
2022/12/01 17:56:16;;;;;;;14.02;6.80;;;5.90;99.90;;;;;;10113124;28;20486;-70
2022/12/01 18:01:16;;;;;;;14.02;6.13;;;5.90;99.90;;;;;;10099875;28;20082;-68
2022/12/01 18:06:07;;;;;;;13.20;5.03;;;5.80;99.90;;;;;;10114697;28;20080;-69
2022/12/01 18:11:11;;;;;;;14.63;6.57;;;5.80;99.90;;;;;;10115551;28;20498;-69
2022/12/01 18:16:14;;;;;;;12.88;6.72;;;5.80;99.90;;;;;;10097979;28;20486;-63
2022/12/01 18:21:11;;;;;;;16.70;7.47;;;5.80;99.90;;;;;;10115694;28;20024;-65
2022/12/01 18:26:04;;;;;;;11.27;5.75;;;5.90;99.90;;;;;;10127570;28;20040;-66
2022/12/01 18:30:54;;;;;;;17.23;5.78;;;5.80;99.90;;;;;;10130347;28;20144;-68
2022/12/01 18:35:45;;;;;;;14.95;6.88;;;5.80;99.90;;;;;;10147429;28;20096;-67
2022/12/01 18:40:37;;;;;;;13.70;6.25;;;5.80;99.90;;;;;;10129764;28;20039;-67
2022/12/01 18:45:28;;;;;;;17.00;7.28;;;5.90;99.90;;;;;;10127993;28;20726;-65
2022/12/01 18:50:18;;;;;;;15.52;7.30;;;5.90;99.90;;;;;;10129371;28;20020;-67
2022/12/01 18:55:09;;;;;;;19.00;6.25;;;5.80;99.90;;;;;;10133680;28;20047;-69
2022/12/01 19:00:00;;;;;;;17.27;6.70;;;5.80;99.90;;;;;;10118713;28;20434;-63
2022/12/01 19:04:51;;;;;;;14.98;6.80;;;5.80;99.90;;;;;;10119835;28;20044;-65
2022/12/01 19:09:42;;;;;;;13.52;6.88;;;5.80;99.90;;;;;;10125926;28;20036;-65
2022/12/01 19:14:32;;;;;;;16.33;6.03;;;5.70;99.90;;;;;;10122812;28;20020;-65
2022/12/01 19:19:23;;;;;;;14.50;6.22;;;5.80;99.90;;;;;;10132865;28;20429;-64
2022/12/01 19:24:14;;;;;;;17.23;7.00;;;5.90;99.90;;;;;;10118593;28;20031;-66
2022/12/01 19:29:05;;;;;;;17.30;7.38;;;5.90;99.90;;;;;;10136464;28;20025;-65
2022/12/01 19:33:56;;;;;;;18.13;7.78;;;5.80;99.90;;;;;;10121427;28;20414;-66
2022/12/01 19:38:47;;;;;;;19.15;7.43;;;5.80;99.90;;;;;;10121021;28;20506;-64
2022/12/01 19:43:37;;;;;;;17.80;7.68;;;5.90;99.90;;;;;;10126356;28;20119;-66
2022/12/01 19:48:28;;;;;;;23.20;7.85;;;5.80;99.90;;;;;;10126647;28;20115;-65
2022/12/01 19:53:19;;;;;;;15.02;6.72;;;5.90;99.90;;;;;;10138284;28;20440;-65
2022/12/01 19:58:09;;;;;;;15.88;7.70;;;5.80;99.90;;;;;;10147786;28;20215;-65
2022/12/01 20:03:00;;;;;;;21.67;7.85;;;5.80;99.90;;;;;;10160923;28;20051;-65
2022/12/01 20:07:51;;;;;;;19.40;7.70;;;5.90;99.90;;;;;;10145213;28;20028;-66
2022/12/01 20:12:41;;;;;;;19.63;9.23;;;5.90;99.90;;;;;;10124137;28;20094;-67
2022/12/01 20:17:35;;;;;;;18.38;8.63;;;5.90;99.90;;;;;;10142676;28;20055;-64
2022/12/01 20:22:29;;;;;;;15.38;7.88;;;5.90;99.90;;;;;;10150712;28;20044;-65
2022/12/01 20:27:19;;;;;;;22.48;9.20;;;5.90;99.90;;;;;;10140684;28;20028;-65
2022/12/01 20:32:10;;;;;;;18.55;8.02;;;5.90;99.90;;;;;;10122743;28;20050;-65
2022/12/01 20:37:03;;;;;;;22.48;8.45;;;5.90;99.90;;;;;;10132310;28;20595;-65
2022/12/01 20:41:53;;;;;;;16.05;8.27;;;6.00;99.90;;;;;;10142819;28;20029;-64
2022/12/01 20:46:44;;;;;;;18.02;8.73;;;5.90;99.90;;;;;;10131446;28;20032;-65
2022/12/01 20:51:35;;;;;;;20.80;7.40;;;6.00;99.90;;;;;;10137007;28;20098;-66
2022/12/01 20:56:26;;;;;;;19.38;8.00;;;6.00;99.90;;;;;;10138367;28;20127;-65
2022/12/01 21:01:16;;;;;;;26.30;8.52;;;5.90;99.90;;;;;;10134922;28;20017;-68
2022/12/01 21:06:08;;;;;;;17.23;8.32;;;5.90;99.90;;;;;;10127607;28;20039;-66
2022/12/01 21:11:04;;;;;;;22.48;9.10;;;5.90;99.90;;;;;;10139251;28;20542;-68
2022/12/01 21:15:55;;;;;;;18.35;8.27;;;5.80;99.90;;;;;;10118232;28;20029;-66
2022/12/01 21:20:47;;;;;;;20.02;8.63;;;5.80;99.90;;;;;;10120639;28;20040;-67
2022/12/01 21:25:39;;;;;;;21.60;8.32;;;5.90;99.90;;;;;;10142118;28;20047;-65
2022/12/01 21:30:30;;;;;;;20.50;8.63;;;5.90;99.90;;;;;;10149686;28;20020;-66
2022/12/01 21:35:26;;;;;;;22.80;7.93;;;5.90;99.90;;;;;;10127065;28;20549;-66
2022/12/01 21:40:22;;;;;;;18.23;8.20;;;5.90;99.90;;;;;;10113912;28;20119;-64
2022/12/01 21:45:27;;;;;;;19.77;8.98;;;5.80;99.90;;;;;;10146570;28;20071;-67
2022/12/01 21:50:26;;;;;;;20.20;8.40;;;5.80;99.90;;;;;;10133250;28;20334;-65
2022/12/01 21:55:16;;;;;;;24.95;10.88;;;5.80;99.90;;;;;;10131011;28;20173;-68
2022/12/01 22:00:28;;;;;;;22.00;9.40;;;5.80;99.90;;;;;;10124728;28;20025;-66
2022/12/01 22:05:45;;;;;;;16.88;8.05;;;5.70;99.90;;;;;;10139085;28;20123;-61
2022/12/01 22:10:58;;;;;;;19.45;9.15;;;5.60;99.90;;;;;;10138350;28;20184;-60
2022/12/01 22:15:49;;;;;;;547.47;189.57;;;5.60;99.90;;;;;;10127398;28;20020;-61
2022/12/01 22:20:39;;;;;;;245.45;86.57;;;5.80;99.90;;;;;;10141592;28;20051;-59
2022/12/01 22:25:30;;;;;;;39.05;12.93;;;5.80;99.90;;;;;;10137451;28;20245;-64
2022/12/01 22:30:22;;;;;;;25.00;9.90;;;5.60;99.90;;;;;;10134236;28;20137;-60
2022/12/01 22:35:28;;;;;;;23.85;9.38;;;5.50;99.90;;;;;;10131995;28;20035;-58
2022/12/01 22:40:37;;;;;;;21.35;8.95;;;5.60;99.90;;;;;;10134255;28;20070;-61
2022/12/01 22:45:27;;;;;;;20.67;8.52;;;5.60;99.90;;;;;;10130596;28;20067;-60
2022/12/01 22:50:28;;;;;;;18.92;8.95;;;5.50;99.90;;;;;;10135574;28;20029;-65
2022/12/01 22:55:19;;;;;;;21.05;8.70;;;5.60;99.90;;;;;;10128814;28;20133;-62
2022/12/01 23:00:19;;;;;;;21.00;8.60;;;5.60;99.90;;;;;;10126953;28;20097;-65
2022/12/01 23:05:24;;;;;;;20.30;8.90;;;5.60;99.90;;;;;;10107397;28;20311;-61
2022/12/01 23:10:24;;;;;;;22.87;9.53;;;5.60;99.90;;;;;;10128998;28;20027;-63
2022/12/01 23:15:23;;;;;;;24.52;9.00;;;5.60;99.90;;;;;;10124243;28;20020;-62
2022/12/01 23:20:28;;;;;;;25.45;9.45;;;5.60;99.90;;;;;;10128765;28;20047;-61
2022/12/01 23:25:19;;;;;;;24.38;10.15;;;5.60;99.90;;;;;;10128330;28;20028;-62
2022/12/01 23:30:11;;;;;;;22.45;9.38;;;5.60;99.90;;;;;;10135980;28;20043;-62
2022/12/01 23:35:02;;;;;;;24.85;10.23;;;5.60;99.90;;;;;;10129354;28;20057;-63
2022/12/01 23:39:54;;;;;;;20.02;9.45;;;5.70;99.90;;;;;;10132941;28;20115;-63
2022/12/01 23:44:45;;;;;;;27.33;10.23;;;5.70;99.90;;;;;;10136843;28;20067;-64
2022/12/01 23:49:36;;;;;;;22.52;9.48;;;5.70;99.90;;;;;;10129480;28;20048;-63
2022/12/01 23:54:30;;;;;;;22.50;9.68;;;5.70;99.90;;;;;;10138098;28;20036;-64
2022/12/01 23:59:21;;;;;;;21.25;8.68;;;5.70;99.90;;;;;;10131582;28;20509;-62
